Time;durP1;ratioP1;P1;durP2;ratioP2;P2;SDS_P1;SDS_P2;PMS_P1;PMS_P2;Temp;Humidity;BMP_temperature;BMP_pressure;BME280_temperature;BME280_humidity;BME280_pressure;Samples;Min_cycle;Max_cycle;Signal;HPM_P1;HPM_P2
2022/03/03 00:00:46;;;;;;;;;;;22.30;27.50;;;;;;5066652;28;19924;-64
2022/03/03 00:03:13;;;;;;;;;;;22.20;27.40;;;;;;5066224;28;20575;-65
2022/03/03 00:05:40;;;;;;;;;;;22.20;27.40;;;;;;5066937;28;19928;-64
2022/03/03 00:08:07;;;;;;;;;;;22.20;27.40;;;;;;5065921;28;19924;-65
2022/03/03 00:10:34;;;;;;;;;;;22.20;27.40;;;;;;5066371;28;19928;-64
2022/03/03 00:13:01;;;;;;;;;;;22.20;27.40;;;;;;5066828;28;20356;-65
2022/03/03 00:15:34;;;;;;;;;;;22.20;27.40;;;;;;5065102;28;20246;-65
2022/03/03 00:18:02;;;;;;;;;;;22.20;27.40;;;;;;5067049;28;20332;-65
2022/03/03 00:20:29;;;;;;;;;;;22.20;27.40;;;;;;5066398;28;19924;-65
2022/03/03 00:22:56;;;;;;;;;;;22.20;27.40;;;;;;5066664;28;19924;-65
2022/03/03 00:25:23;;;;;;;;;;;22.20;27.40;;;;;;5066393;28;20322;-65
2022/03/03 00:27:50;;;;;;;;;;;22.20;27.40;;;;;;5066237;28;20002;-65
2022/03/03 00:30:17;;;;;;;;;;;22.20;27.40;;;;;;5066256;28;19978;-65
2022/03/03 00:32:44;;;;;;;;;;;22.20;27.40;;;;;;5065745;28;20464;-65
2022/03/03 00:35:11;;;;;;;;;;;22.20;27.30;;;;;;5066139;28;19928;-65
2022/03/03 00:37:39;;;;;;;;;;;22.20;27.40;;;;;;5066581;28;19925;-65
2022/03/03 00:40:06;;;;;;;;;;;22.20;27.40;;;;;;5065600;28;19968;-65
2022/03/03 00:42:33;;;;;;;;;;;22.20;27.40;;;;;;5066436;28;20110;-65
2022/03/03 00:45:00;;;;;;;;;;;22.20;27.40;;;;;;5065570;28;19928;-65
2022/03/03 00:47:28;;;;;;;;;;;22.10;27.30;;;;;;5064908;28;19925;-65
2022/03/03 00:49:55;;;;;;;;;;;22.10;27.30;;;;;;5065910;28;19924;-65
2022/03/03 00:52:22;;;;;;;;;;;22.10;27.30;;;;;;5065819;28;20348;-65
2022/03/03 00:54:49;;;;;;;;;;;22.10;27.30;;;;;;5066113;28;20259;-65
2022/03/03 00:57:15;;;;;;;;;;;22.10;27.30;;;;;;5065671;28;20332;-65
2022/03/03 00:59:42;;;;;;;;;;;22.10;27.30;;;;;;5066091;28;19924;-65
2022/03/03 01:02:09;;;;;;;;;;;22.10;27.40;;;;;;5065749;28;20023;-65
2022/03/03 01:04:37;;;;;;;;;;;22.10;27.30;;;;;;5065682;28;20274;-65
2022/03/03 01:07:05;;;;;;;;;;;22.10;27.40;;;;;;5066260;28;19924;-65
2022/03/03 01:09:32;;;;;;;;;;;22.10;27.30;;;;;;5065708;28;19988;-65
2022/03/03 01:11:59;;;;;;;;;;;22.00;27.30;;;;;;5066140;28;20413;-65
2022/03/03 01:14:26;;;;;;;;;;;22.00;27.30;;;;;;5065339;28;19928;-65
2022/03/03 01:16:53;;;;;;;;;;;22.00;27.30;;;;;;5065787;28;19924;-65
2022/03/03 01:19:20;;;;;;;;;;;22.00;27.30;;;;;;5065408;28;19933;-65
2022/03/03 01:21:47;;;;;;;;;;;22.00;27.30;;;;;;5065464;28;19970;-65
2022/03/03 01:24:14;;;;;;;;;;;22.00;27.40;;;;;;5065911;28;19933;-65
2022/03/03 01:26:41;;;;;;;;;;;22.10;27.40;;;;;;5065170;28;19931;-65
2022/03/03 01:29:08;;;;;;;;;;;22.00;27.40;;;;;;5065325;28;20026;-65
2022/03/03 01:31:36;;;;;;;;;;;22.00;27.40;;;;;;5065613;28;20377;-65
2022/03/03 01:34:03;;;;;;;;;;;22.00;27.40;;;;;;5065111;28;19963;-65
2022/03/03 01:36:30;;;;;;;;;;;22.00;27.40;;;;;;5065921;28;19991;-65
2022/03/03 01:38:57;;;;;;;;;;;22.00;27.40;;;;;;5065398;28;20354;-65
2022/03/03 01:41:24;;;;;;;;;;;22.00;27.40;;;;;;5065799;28;19928;-65
2022/03/03 01:43:51;;;;;;;;;;;22.00;27.40;;;;;;5065081;28;20187;-65
2022/03/03 01:46:18;;;;;;;;;;;22.00;27.40;;;;;;5065539;28;19925;-65
2022/03/03 01:48:46;;;;;;;;;;;22.00;27.40;;;;;;5065641;28;20396;-65
2022/03/03 01:51:14;;;;;;;;;;;22.00;27.40;;;;;;5065533;28;19925;-65
2022/03/03 01:53:41;;;;;;;;;;;22.00;27.40;;;;;;5065764;28;20379;-65
2022/03/03 01:56:08;;;;;;;;;;;22.00;27.40;;;;;;5065735;28;20002;-65
2022/03/03 01:58:36;;;;;;;;;;;22.00;27.40;;;;;;5065805;28;19928;-65
2022/03/03 02:01:03;;;;;;;;;;;21.90;27.30;;;;;;5069142;28;19978;-65
2022/03/03 02:03:31;;;;;;;;;;;21.90;27.30;;;;;;5068532;28;20153;-65
2022/03/03 02:05:58;;;;;;;;;;;21.90;27.30;;;;;;5068872;28;20118;-65
2022/03/03 02:08:25;;;;;;;;;;;22.00;27.30;;;;;;5068829;28;20163;-65
2022/03/03 02:10:52;;;;;;;;;;;22.00;27.30;;;;;;5100918;28;19924;-65
2022/03/03 02:13:19;;;;;;;;;;;22.00;27.30;;;;;;5067747;28;20483;-65
2022/03/03 02:15:47;;;;;;;;;;;21.90;27.20;;;;;;5068104;28;19928;-65
2022/03/03 02:18:14;;;;;;;;;;;21.90;27.20;;;;;;5068905;28;19990;-65
2022/03/03 02:20:41;;;;;;;;;;;21.90;27.20;;;;;;5068509;28;20011;-64
2022/03/03 02:23:08;;;;;;;;;;;21.90;27.20;;;;;;5068420;28;20167;-64
2022/03/03 02:25:35;;;;;;;;;;;21.90;27.20;;;;;;5100773;28;20023;-65
2022/03/03 02:28:02;;;;;;;;;;;21.90;27.20;;;;;;5068165;28;20588;-64
2022/03/03 02:30:29;;;;;;;;;;;21.90;27.20;;;;;;5068632;28;19931;-64
2022/03/03 02:32:56;;;;;;;;;;;21.90;27.20;;;;;;5068134;28;19924;-64
2022/03/03 02:35:24;;;;;;;;;;;21.90;27.20;;;;;;5100627;28;19937;-65
2022/03/03 02:37:51;;;;;;;;;;;21.90;27.20;;;;;;5068392;28;20397;-65
2022/03/03 02:40:22;;;;;;;;;;;21.90;27.20;;;;;;5068102;28;20521;-65
2022/03/03 02:42:49;;;;;;;;;;;21.90;27.20;;;;;;5068453;28;20366;-65
2022/03/03 02:45:17;;;;;;;;;;;21.90;27.20;;;;;;5099958;28;20562;-64
2022/03/03 02:47:45;;;;;;;;;;;21.90;27.20;;;;;;5068493;28;19997;-64
2022/03/03 02:50:13;;;;;;;;;;;21.90;27.20;;;;;;5068026;28;19928;-64
2022/03/03 02:52:40;;;;;;;;;;;21.90;27.20;;;;;;5067724;28;19929;-64
2022/03/03 02:55:08;;;;;;;;;;;21.80;27.20;;;;;;5067392;28;19986;-64
2022/03/03 03:00:24;;;;;;;;;;;21.80;27.20;;;;;;5068073;28;20266;-64
2022/03/03 03:02:51;;;;;;;;;;;21.80;27.20;;;;;;5066351;28;20451;-64
2022/03/03 03:05:18;;;;;;;;;;;21.80;27.20;;;;;;5067502;28;19924;-64
2022/03/03 03:07:45;;;;;;;;;;;21.80;27.20;;;;;;5100245;28;20340;-65
2022/03/03 03:10:13;;;;;;;;;;;21.80;27.20;;;;;;5066623;28;19989;-65
2022/03/03 03:12:40;;;;;;;;;;;21.80;27.20;;;;;;5067726;28;19928;-64
2022/03/03 03:15:07;;;;;;;;;;;21.80;27.20;;;;;;5067497;28;20010;-64
2022/03/03 03:17:34;;;;;;;;;;;21.80;27.20;;;;;;5067889;28;20204;-64
2022/03/03 03:20:01;;;;;;;;;;;21.80;27.20;;;;;;5067634;28;19982;-65
2022/03/03 03:22:28;;;;;;;;;;;21.80;27.20;;;;;;5067091;28;19964;-65
2022/03/03 03:24:55;;;;;;;;;;;21.80;27.20;;;;;;5067505;28;20183;-64
2022/03/03 03:27:22;;;;;;;;;;;21.80;27.20;;;;;;5067191;28;19998;-64
2022/03/03 03:29:49;;;;;;;;;;;21.80;27.20;;;;;;5067329;28;20145;-65
2022/03/03 03:32:16;;;;;;;;;;;21.70;27.20;;;;;;5067619;28;20185;-65
2022/03/03 03:34:43;;;;;;;;;;;21.80;27.20;;;;;;5066637;28;20181;-64
2022/03/03 03:37:10;;;;;;;;;;;21.80;27.20;;;;;;5067422;28;19928;-64
2022/03/03 03:39:37;;;;;;;;;;;21.80;27.20;;;;;;5066851;28;19970;-64
2022/03/03 03:42:04;;;;;;;;;;;21.70;27.20;;;;;;5066554;28;20381;-64
2022/03/03 03:44:31;;;;;;;;;;;21.80;27.20;;;;;;5067030;28;19928;-65
2022/03/03 03:46:58;;;;;;;;;;;21.80;27.30;;;;;;5066840;28;20038;-65
2022/03/03 03:49:25;;;;;;;;;;;21.70;27.20;;;;;;5099510;28;20348;-64
2022/03/03 03:51:52;;;;;;;;;;;21.80;27.30;;;;;;5066711;28;19978;-64
2022/03/03 03:54:19;;;;;;;;;;;21.70;27.30;;;;;;5067059;28;20069;-64
2022/03/03 03:56:46;;;;;;;;;;;21.80;27.40;;;;;;5066255;28;20453;-64
2022/03/03 03:59:13;;;;;;;;;;;21.70;27.30;;;;;;5066541;28;20440;-64
2022/03/03 04:01:40;;;;;;;;;;;21.70;27.40;;;;;;5067087;28;19924;-65
2022/03/03 04:04:08;;;;;;;;;;;21.80;27.50;;;;;;5066255;28;19932;-64
2022/03/03 04:06:36;;;;;;;;;;;21.70;27.50;;;;;;5066553;28;19925;-65
2022/03/03 04:09:04;;;;;;;;;;;21.80;27.50;;;;;;5066344;28;19990;-64
2022/03/03 04:11:31;;;;;;;;;;;21.70;27.50;;;;;;5066524;28;19975;-67
2022/03/03 04:13:58;;;;;;;;;;;21.70;27.50;;;;;;5066443;28;19929;-64
2022/03/03 04:16:25;;;;;;;;;;;21.70;27.50;;;;;;5066175;28;20126;-65
2022/03/03 04:18:52;;;;;;;;;;;21.70;27.60;;;;;;5066531;28;19925;-64
2022/03/03 04:21:19;;;;;;;;;;;21.70;27.60;;;;;;5066009;28;20358;-65
2022/03/03 04:23:46;;;;;;;;;;;21.70;27.60;;;;;;5066209;28;19924;-64
2022/03/03 04:26:13;;;;;;;;;;;21.70;27.60;;;;;;5066308;28;20124;-64
2022/03/03 04:28:40;;;;;;;;;;;21.70;27.70;;;;;;5066258;28;20561;-64
2022/03/03 04:31:07;;;;;;;;;;;21.70;27.70;;;;;;5066272;28;19977;-64
2022/03/03 04:33:34;;;;;;;;;;;21.70;27.70;;;;;;5066340;28;19970;-67
2022/03/03 04:36:01;;;;;;;;;;;21.70;27.70;;;;;;5066258;28;19974;-64
2022/03/03 04:38:28;;;;;;;;;;;21.60;27.70;;;;;;5066032;28;20427;-64
2022/03/03 04:40:55;;;;;;;;;;;21.70;27.80;;;;;;5065636;28;19924;-64
2022/03/03 04:43:22;;;;;;;;;;;21.70;27.80;;;;;;5066034;28;19998;-64
2022/03/03 04:45:49;;;;;;;;;;;21.70;27.70;;;;;;5060189;28;19924;-64
2022/03/03 04:48:16;;;;;;;;;;;21.70;27.80;;;;;;5054038;28;20007;-64
2022/03/03 04:50:43;;;;;;;;;;;21.70;27.80;;;;;;5054208;28;20361;-65
2022/03/03 04:53:10;;;;;;;;;;;21.60;27.80;;;;;;5053925;28;20143;-64
2022/03/03 04:55:37;;;;;;;;;;;21.70;27.80;;;;;;5046977;28;20290;-64
2022/03/03 04:58:06;;;;;;;;;;;21.60;27.80;;;;;;5051571;28;19998;-65
2022/03/03 05:00:33;;;;;;;;;;;21.70;27.80;;;;;;5045757;28;19932;-65
2022/03/03 05:03:00;;;;;;;;;;;21.70;27.80;;;;;;5046073;28;19960;-64
2022/03/03 05:05:27;;;;;;;;;;;21.70;27.80;;;;;;5045524;28;19925;-64
2022/03/03 05:07:54;;;;;;;;;;;21.60;27.80;;;;;;5045962;28;20050;-64
2022/03/03 05:10:21;;;;;;;;;;;21.60;27.80;;;;;;5045476;28;19984;-64
2022/03/03 05:12:48;;;;;;;;;;;21.70;27.80;;;;;;5061514;28;19924;-64
2022/03/03 05:15:15;;;;;;;;;;;21.60;27.80;;;;;;5045900;28;20329;-64
2022/03/03 05:17:42;;;;;;;;;;;21.70;27.80;;;;;;5046046;28;19990;-65
2022/03/03 05:20:09;;;;;;;;;;;21.60;27.80;;;;;;5045903;28;19987;-64
2022/03/03 05:22:36;;;;;;;;;;;21.60;27.80;;;;;;5047468;28;19925;-64
2022/03/03 05:25:03;;;;;;;;;;;21.70;27.80;;;;;;5073148;28;19985;-64
2022/03/03 05:27:30;;;;;;;;;;;21.60;27.80;;;;;;5083175;28;19955;-64
2022/03/03 05:29:57;;;;;;;;;;;21.60;27.80;;;;;;5085694;28;19977;-64
2022/03/03 05:32:25;;;;;;;;;;;21.70;27.80;;;;;;5085996;28;20210;-64
2022/03/03 05:34:52;;;;;;;;;;;21.60;27.80;;;;;;5088745;28;20438;-64
2022/03/03 05:37:21;;;;;;;;;;;21.70;27.80;;;;;;5089667;28;20446;-65
2022/03/03 05:39:48;;;;;;;;;;;21.70;27.80;;;;;;5089319;28;19928;-65
2022/03/03 05:42:15;;;;;;;;;;;21.70;27.80;;;;;;5069484;28;20008;-65
2022/03/03 05:44:42;;;;;;;;;;;21.70;27.70;;;;;;5057237;28;20390;-64
2022/03/03 05:47:10;;;;;;;;;;;21.70;27.70;;;;;;5058277;28;20015;-64
2022/03/03 05:49:38;;;;;;;;;;;21.70;27.70;;;;;;5062591;28;20348;-64
2022/03/03 05:52:06;;;;;;;;;;;21.70;27.70;;;;;;5079425;28;19925;-65
2022/03/03 05:54:32;;;;;;;;;;;21.70;27.60;;;;;;5067607;28;19982;-64
2022/03/03 05:57:01;;;;;;;;;;;21.70;27.60;;;;;;5065053;28;19925;-64
2022/03/03 05:59:31;;;;;;;;;;;21.70;27.60;;;;;;5066954;28;19972;-64
2022/03/03 06:01:59;;;;;;;;;;;21.80;27.60;;;;;;5059311;28;20378;-65
2022/03/03 06:04:29;;;;;;;;;;;21.70;27.50;;;;;;5061400;28;19929;-64
2022/03/03 06:07:04;;;;;;;;;;;21.80;27.60;;;;;;5060144;28;19955;-66
2022/03/03 06:09:32;;;;;;;;;;;21.80;27.40;;;;;;5077009;28;20454;-65
2022/03/03 06:12:03;;;;;;;;;;;21.80;27.20;;;;;;5070514;28;20389;-66
2022/03/03 06:14:35;;;;;;;;;;;21.70;27.00;;;;;;5062895;28;19951;-66
2022/03/03 06:17:02;;;;;;;;;;;21.70;27.00;;;;;;5065248;28;20028;-66
2022/03/03 06:19:30;;;;;;;;;;;21.70;27.10;;;;;;5065418;28;19939;-66
2022/03/03 06:21:57;;;;;;;;;;;21.80;27.00;;;;;;5061670;28;20035;-66
2022/03/03 06:24:24;;;;;;;;;;;21.80;27.00;;;;;;5056726;28;19928;-65
2022/03/03 06:26:51;;;;;;;;;;;21.80;26.90;;;;;;5060820;28;19929;-66
2022/03/03 06:29:18;;;;;;;;;;;21.80;26.80;;;;;;5060800;28;19976;-65
2022/03/03 06:31:45;;;;;;;;;;;21.80;26.70;;;;;;5059492;28;19964;-66
2022/03/03 06:34:12;;;;;;;;;;;21.90;26.80;;;;;;5060592;28;19978;-65
2022/03/03 06:36:39;;;;;;;;;;;21.90;26.70;;;;;;5059886;28;20417;-62
2022/03/03 06:39:06;;;;;;;;;;;22.00;26.80;;;;;;5066284;28;19966;-64
2022/03/03 06:41:33;;;;;;;;;;;22.00;26.90;;;;;;5065676;28;19928;-63
2022/03/03 06:44:00;;;;;;;;;;;22.10;26.70;;;;;;5069242;28;19969;-65
2022/03/03 06:46:28;;;;;;;;;;;22.10;26.60;;;;;;5066121;28;20356;-63
2022/03/03 06:48:55;;;;;;;;;;;22.20;26.50;;;;;;5064931;28;20284;-62
2022/03/03 06:51:22;;;;;;;;;;;22.30;26.50;;;;;;5060024;28;19924;-64
2022/03/03 06:53:52;;;;;;;;;;;22.30;27.20;;;;;;5063387;28;19982;-67
2022/03/03 06:56:21;;;;;;;;;;;22.40;27.40;;;;;;5063727;28;20073;-63
2022/03/03 06:58:50;;;;;;;;;;;22.40;27.20;;;;;;5061439;28;19963;-62
2022/03/03 07:01:19;;;;;;;;;;;22.50;26.90;;;;;;5063048;28;20324;-62
2022/03/03 07:03:46;;;;;;;;;;;22.60;26.70;;;;;;5066711;28;19931;-63
2022/03/03 07:06:13;;;;;;;;;;;22.60;27.10;;;;;;5069006;28;19978;-63
2022/03/03 07:08:41;;;;;;;;;;;22.70;27.20;;;;;;5062999;28;19947;-63
2022/03/03 07:11:08;;;;;;;;;;;22.80;27.30;;;;;;5058026;28;19924;-65
2022/03/03 07:13:37;;;;;;;;;;;22.80;27.50;;;;;;5061238;28;19929;-64
2022/03/03 07:16:16;;;;;;;;;;;22.90;27.60;;;;;;5068674;28;19985;-64
2022/03/03 07:18:48;;;;;;;;;;;22.90;27.60;;;;;;5059677;28;20274;-66
2022/03/03 07:21:35;;;;;;;;;;;23.00;27.80;;;;;;5068826;28;19932;-62
2022/03/03 07:27:25;;;;;;;;;;;23.20;27.60;;;;;;5067272;28;22092;-63
2022/03/03 07:29:57;;;;;;;;;;;23.30;27.40;;;;;;5073739;28;19925;-62
2022/03/03 07:32:29;;;;;;;;;;;23.30;27.60;;;;;;5086825;28;19928;-62
2022/03/03 07:34:58;;;;;;;;;;;23.40;27.40;;;;;;5062584;28;19928;-62
2022/03/03 07:40:28;;;;;;;;;;;23.50;27.10;;;;;;5068792;28;19970;-65
2022/03/03 07:42:56;;;;;;;;;;;23.60;27.20;;;;;;5070187;28;19924;-62
2022/03/03 07:45:23;;;;;;;;;;;23.60;26.90;;;;;;5061327;28;19990;-61
2022/03/03 07:47:51;;;;;;;;;;;23.70;27.10;;;;;;5057925;28;20370;-64
2022/03/03 07:50:18;;;;;;;;;;;23.70;27.00;;;;;;5057310;28;20416;-64
2022/03/03 07:52:50;;;;;;;;;;;23.80;26.60;;;;;;5063492;28;19942;-64
2022/03/03 07:55:18;;;;;;;;;;;23.80;26.30;;;;;;5067224;28;19978;-65
2022/03/03 07:57:56;;;;;;;;;;;23.90;26.10;;;;;;5061142;28;19928;-64
2022/03/03 08:00:23;;;;;;;;;;;23.90;26.00;;;;;;5067525;28;19990;-63
2022/03/03 08:02:53;;;;;;;;;;;23.90;25.80;;;;;;5069528;28;19985;-64
2022/03/03 08:05:21;;;;;;;;;;;23.90;25.80;;;;;;5069272;28;19929;-63
2022/03/03 08:07:49;;;;;;;;;;;23.90;25.80;;;;;;5069537;28;19965;-65
2022/03/03 08:10:16;;;;;;;;;;;24.00;25.70;;;;;;5063910;28;19982;-65
2022/03/03 08:12:43;;;;;;;;;;;24.00;25.70;;;;;;5067097;28;19978;-65
2022/03/03 08:15:11;;;;;;;;;;;24.10;25.70;;;;;;5068523;28;19936;-65
2022/03/03 08:17:38;;;;;;;;;;;24.00;25.60;;;;;;5067359;28;19931;-65
2022/03/03 08:20:06;;;;;;;;;;;24.10;25.60;;;;;;5066364;28;20431;-65
2022/03/03 08:22:34;;;;;;;;;;;24.10;25.70;;;;;;5068642;28;20278;-65
2022/03/03 08:25:01;;;;;;;;;;;24.10;25.70;;;;;;5069114;28;19970;-65
2022/03/03 08:27:28;;;;;;;;;;;24.10;25.60;;;;;;5070597;28;19928;-66
2022/03/03 08:30:00;;;;;;;;;;;24.20;25.70;;;;;;5078521;28;20369;-66
2022/03/03 08:32:31;;;;;;;;;;;24.20;25.70;;;;;;5088139;28;20036;-66
2022/03/03 08:35:13;;;;;;;;;;;24.20;25.70;;;;;;5089842;28;19924;-69
2022/03/03 08:37:41;;;;;;;;;;;24.20;25.60;;;;;;5079939;28;19932;-65
2022/03/03 08:40:09;;;;;;;;;;;24.20;25.60;;;;;;5066364;28;19924;-66
2022/03/03 08:42:38;;;;;;;;;;;24.30;25.70;;;;;;5068351;28;20375;-66
2022/03/03 08:45:07;;;;;;;;;;;24.30;25.70;;;;;;5067513;28;20201;-66
2022/03/03 08:47:34;;;;;;;;;;;24.30;25.70;;;;;;5064570;28;19928;-64
2022/03/03 08:50:04;;;;;;;;;;;24.30;25.70;;;;;;5063530;28;19924;-64
2022/03/03 08:52:52;;;;;;;;;;;24.30;25.80;;;;;;5066940;28;20015;-64
2022/03/03 08:55:19;;;;;;;;;;;24.30;25.80;;;;;;5069060;28;19925;-66
2022/03/03 08:57:46;;;;;;;;;;;24.30;25.80;;;;;;5065092;28;19995;-68
2022/03/03 09:00:14;;;;;;;;;;;24.40;25.80;;;;;;5066409;28;20370;-66
2022/03/03 09:02:41;;;;;;;;;;;24.40;25.80;;;;;;5068964;28;19985;-65
2022/03/03 09:05:09;;;;;;;;;;;24.40;25.90;;;;;;5067934;28;20452;-67
2022/03/03 09:07:36;;;;;;;;;;;24.40;25.90;;;;;;5062257;28;19968;-63
2022/03/03 09:10:04;;;;;;;;;;;24.40;25.90;;;;;;5067622;28;19974;-63
2022/03/03 09:12:31;;;;;;;;;;;24.50;26.10;;;;;;5071844;28;19932;-65
2022/03/03 09:14:58;;;;;;;;;;;24.50;26.40;;;;;;5072121;28;20434;-65
2022/03/03 09:17:31;;;;;;;;;;;24.50;26.10;;;;;;5072777;28;19947;-67
2022/03/03 09:20:00;;;;;;;;;;;24.60;26.30;;;;;;5055818;28;19925;-65
2022/03/03 09:22:28;;;;;;;;;;;24.70;26.20;;;;;;5051667;28;19975;-65
2022/03/03 09:24:55;;;;;;;;;;;24.70;26.30;;;;;;5050775;28;19925;-66
2022/03/03 09:27:23;;;;;;;;;;;24.70;26.30;;;;;;5051143;28;20019;-66
2022/03/03 09:29:50;;;;;;;;;;;24.70;26.40;;;;;;5054437;28;19925;-65
2022/03/03 09:32:17;;;;;;;;;;;24.80;26.20;;;;;;5060753;28;20022;-64
2022/03/03 09:34:45;;;;;;;;;;;24.70;26.00;;;;;;5061604;28;19932;-63
2022/03/03 09:37:13;;;;;;;;;;;24.70;26.10;;;;;;5062756;28;19981;-65
2022/03/03 09:39:41;;;;;;;;;;;24.70;26.00;;;;;;5061412;28;20035;-64
2022/03/03 09:42:11;;;;;;;;;;;24.70;26.00;;;;;;5059390;28;19932;-65
2022/03/03 09:44:38;;;;;;;;;;;24.70;25.80;;;;;;5060409;28;20044;-62
2022/03/03 09:47:05;;;;;;;;;;;24.70;25.90;;;;;;5060817;28;20657;-63
2022/03/03 09:49:32;;;;;;;;;;;24.70;25.80;;;;;;5062223;28;19932;-66
2022/03/03 09:52:01;;;;;;;;;;;24.70;25.90;;;;;;5058332;28;19943;-63
2022/03/03 09:54:28;;;;;;;;;;;24.70;25.80;;;;;;5055025;28;19940;-64
2022/03/03 09:56:55;;;;;;;;;;;24.70;25.70;;;;;;5060482;28;20381;-64
2022/03/03 09:59:22;;;;;;;;;;;24.70;25.90;;;;;;5058935;28;19932;-65
2022/03/03 10:01:49;;;;;;;;;;;24.70;25.90;;;;;;5066052;28;19986;-65
2022/03/03 10:04:21;;;;;;;;;;;24.70;26.00;;;;;;5062287;28;20447;-65
2022/03/03 10:06:49;;;;;;;;;;;24.70;26.00;;;;;;5092575;28;20382;-66
2022/03/03 10:09:17;;;;;;;;;;;24.70;26.00;;;;;;5062021;28;20014;-64
2022/03/03 10:11:55;;;;;;;;;;;24.70;25.90;;;;;;5077443;28;19963;-66
2022/03/03 10:14:26;;;;;;;;;;;24.80;26.10;;;;;;5054900;28;20015;-64
2022/03/03 10:16:53;;;;;;;;;;;24.70;26.00;;;;;;5058818;28;20401;-72
2022/03/03 10:19:56;;;;;;;;;;;24.80;26.10;;;;;;5062156;28;19928;-64
2022/03/03 10:22:25;;;;;;;;;;;24.80;25.90;;;;;;5063578;28;20447;-64
2022/03/03 10:24:52;;;;;;;;;;;24.80;25.80;;;;;;5058378;28;19932;-63
2022/03/03 10:27:19;;;;;;;;;;;24.80;25.90;;;;;;5062619;28;19932;-66
2022/03/03 10:29:47;;;;;;;;;;;24.80;25.90;;;;;;5060878;28;19994;-66
2022/03/03 10:32:27;;;;;;;;;;;24.80;25.70;;;;;;5048432;28;19974;-68
2022/03/03 10:35:00;;;;;;;;;;;24.80;25.80;;;;;;5062480;28;20324;-67
2022/03/03 10:37:28;;;;;;;;;;;24.80;25.70;;;;;;5064853;28;19928;-69
2022/03/03 10:39:56;;;;;;;;;;;24.70;24.20;;;;;;5065965;28;19925;-66
2022/03/03 10:42:29;;;;;;;;;;;24.70;24.90;;;;;;5061309;28;19939;-66
2022/03/03 10:45:17;;;;;;;;;;;24.70;25.10;;;;;;5066598;28;19924;-65
2022/03/03 10:48:04;;;;;;;;;;;24.70;25.10;;;;;;5064729;28;20448;-65
2022/03/03 10:50:48;;;;;;;;;;;24.70;25.10;;;;;;5064211;28;19970;-65
2022/03/03 10:53:19;;;;;;;;;;;24.70;25.20;;;;;;5059274;28;20479;-65
2022/03/03 10:56:00;;;;;;;;;;;24.70;25.00;;;;;;5064991;28;19936;-65
2022/03/03 10:58:42;;;;;;;;;;;24.70;25.00;;;;;;5062901;28;19933;-68
2022/03/03 11:01:10;;;;;;;;;;;24.70;25.00;;;;;;5055600;28;19928;-68
2022/03/03 11:03:39;;;;;;;;;;;24.70;24.80;;;;;;5058431;28;19979;-67
2022/03/03 11:06:06;;;;;;;;;;;24.80;24.90;;;;;;5053171;28;19925;-66
2022/03/03 11:08:34;;;;;;;;;;;24.80;24.80;;;;;;5060688;28;19940;-64
2022/03/03 11:11:03;;;;;;;;;;;24.80;24.80;;;;;;5057122;28;19936;-66
2022/03/03 11:13:30;;;;;;;;;;;24.80;24.80;;;;;;5058516;28;19948;-67
2022/03/03 11:15:58;;;;;;;;;;;24.80;24.80;;;;;;5066542;28;19928;-66
2022/03/03 11:18:25;;;;;;;;;;;24.80;24.50;;;;;;5056653;28;19954;-66
2022/03/03 11:20:52;;;;;;;;;;;24.80;24.30;;;;;;5067131;28;20381;-65
2022/03/03 11:23:21;;;;;;;;;;;24.80;24.20;;;;;;5058754;28;19924;-66
2022/03/03 11:25:49;;;;;;;;;;;24.80;24.00;;;;;;5068926;28;19924;-66
2022/03/03 11:28:18;;;;;;;;;;;24.80;23.90;;;;;;5059485;28;19964;-67
2022/03/03 11:30:46;;;;;;;;;;;24.70;23.80;;;;;;5068082;28;20006;-66
2022/03/03 11:33:25;;;;;;;;;;;24.70;23.80;;;;;;5063223;28;19999;-71
2022/03/03 11:35:58;;;;;;;;;;;24.70;23.70;;;;;;5067938;28;19924;-67
2022/03/03 11:38:27;;;;;;;;;;;24.70;23.70;;;;;;5055953;28;19944;-70
2022/03/03 11:40:59;;;;;;;;;;;24.70;23.60;;;;;;5054515;28;19940;-65
2022/03/03 11:43:27;;;;;;;;;;;24.70;23.60;;;;;;5064158;28;19978;-63
2022/03/03 11:45:58;;;;;;;;;;;24.50;18.90;;;;;;5050000;28;19929;-66
2022/03/03 11:48:36;;;;;;;;;;;24.20;21.30;;;;;;5048692;28;20285;-64
2022/03/03 11:51:23;;;;;;;;;;;24.00;22.50;;;;;;5049991;28;19928;-64
2022/03/03 11:54:11;;;;;;;;;;;23.90;23.00;;;;;;5054503;28;19992;-65
2022/03/03 11:56:57;;;;;;;;;;;23.90;23.10;;;;;;5066268;28;20265;-66
2022/03/03 12:02:55;;;;;;;;;;;24.00;23.50;;;;;;5067644;28;20012;-67
2022/03/03 12:05:29;;;;;;;;;;;24.10;23.40;;;;;;5064693;28;19926;-70
2022/03/03 12:08:05;;;;;;;;;;;24.10;23.30;;;;;;5061757;28;19950;-70
2022/03/03 12:10:32;;;;;;;;;;;24.10;23.40;;;;;;5065143;28;20522;-70
2022/03/03 12:13:19;;;;;;;;;;;24.20;23.30;;;;;;5063908;28;20825;-70
2022/03/03 12:16:06;;;;;;;;;;;24.20;23.40;;;;;;5050559;28;19925;-66
2022/03/03 12:18:34;;;;;;;;;;;24.20;23.50;;;;;;5047160;28;20035;-65
2022/03/03 12:21:21;;;;;;;;;;;24.30;23.90;;;;;;5066113;28;20343;-64
2022/03/03 12:23:48;;;;;;;;;;;24.30;23.80;;;;;;5065577;28;19928;-63
2022/03/03 12:26:15;;;;;;;;;;;24.30;23.80;;;;;;5067935;28;19978;-67
2022/03/03 12:28:45;;;;;;;;;;;24.30;23.70;;;;;;5066713;28;20330;-66
2022/03/03 12:31:29;;;;;;;;;;;24.30;23.70;;;;;;5059571;28;19931;-65
2022/03/03 12:34:07;;;;;;;;;;;24.40;23.70;;;;;;5062353;28;19951;-66
2022/03/03 12:36:36;;;;;;;;;;;24.40;24.00;;;;;;5060286;28;19982;-67
2022/03/03 12:39:04;;;;;;;;;;;24.40;24.00;;;;;;5060376;28;19928;-67
2022/03/03 12:41:32;;;;;;;;;;;24.40;24.10;;;;;;5091076;28;19932;-66
2022/03/03 12:44:03;;;;;;;;;;;24.50;24.10;;;;;;5059697;28;19936;-66
2022/03/03 12:46:32;;;;;;;;;;;24.50;24.00;;;;;;5061778;28;19936;-63
2022/03/03 12:49:01;;;;;;;;;;;24.50;24.00;;;;;;5063367;28;20386;-65
2022/03/03 12:51:31;;;;;;;;;;;24.50;23.90;;;;;;5092124;28;19924;-64
2022/03/03 12:54:01;;;;;;;;;;;24.50;23.90;;;;;;5063692;28;19924;-67
2022/03/03 12:56:30;;;;;;;;;;;24.50;24.00;;;;;;5066986;28;19933;-64
2022/03/03 12:59:06;;;;;;;;;;;24.60;24.00;;;;;;5060386;28;20320;-66
2022/03/03 13:01:37;;;;;;;;;;;24.60;24.00;;;;;;5058755;28;19940;-68
2022/03/03 13:04:06;;;;;;;;;;;24.60;24.20;;;;;;5060209;28;19928;-67
2022/03/03 13:06:34;;;;;;;;;;;24.60;24.20;;;;;;5058517;28;19954;-67
2022/03/03 13:09:04;;;;;;;;;;;24.60;24.30;;;;;;5061433;28;19931;-67
2022/03/03 13:11:31;;;;;;;;;;;24.60;24.30;;;;;;5057455;28;19982;-66
2022/03/03 13:14:02;;;;;;;;;;;24.60;24.20;;;;;;5060622;28;19925;-64
2022/03/03 13:16:36;;;;;;;;;;;24.60;24.20;;;;;;5066699;28;19928;-65
2022/03/03 13:19:05;;;;;;;;;;;24.60;24.10;;;;;;5065620;28;20450;-66
2022/03/03 13:21:33;;;;;;;;;;;24.60;24.00;;;;;;5069175;28;20015;-66
2022/03/03 13:24:02;;;;;;;;;;;24.60;23.90;;;;;;5067877;28;20355;-68
2022/03/03 13:26:49;;;;;;;;;;;24.60;24.10;;;;;;5061599;28;20372;-67
2022/03/03 13:29:22;;;;;;;;;;;24.70;24.20;;;;;;5061052;28;19978;-65
2022/03/03 13:31:50;;;;;;;;;;;24.70;24.30;;;;;;5059647;28;20029;-64
2022/03/03 13:34:22;;;;;;;;;;;24.70;24.30;;;;;;5060983;28;19928;-64
2022/03/03 13:36:49;;;;;;;;;;;24.80;24.20;;;;;;5088359;28;20402;-67
2022/03/03 13:39:33;;;;;;;;;;;24.70;24.10;;;;;;5055586;28;19954;-64
2022/03/03 13:42:08;;;;;;;;;;;24.80;24.00;;;;;;5059303;28;19933;-65
2022/03/03 13:44:55;;;;;;;;;;;24.80;23.90;;;;;;5058133;28;19932;-65
2022/03/03 13:47:27;;;;;;;;;;;24.90;24.10;;;;;;5058882;28;20305;-65
2022/03/03 13:53:19;;;;;;;;;;;24.90;24.00;;;;;;5051696;28;19927;-74
2022/03/03 13:55:46;;;;;;;;;;;25.00;23.90;;;;;;5068005;28;19925;-67
2022/03/03 13:58:20;;;;;;;;;;;25.00;23.80;;;;;;5060908;28;19928;-69
2022/03/03 14:00:48;;;;;;;;;;;25.00;23.80;;;;;;5068440;28;20262;-65
2022/03/03 14:03:16;;;;;;;;;;;25.00;23.80;;;;;;5068228;28;19964;-67
2022/03/03 14:05:50;;;;;;;;;;;25.00;23.80;;;;;;5066337;28;20365;-67
2022/03/03 14:08:23;;;;;;;;;;;25.00;23.80;;;;;;5060312;28;20284;-66
2022/03/03 14:10:52;;;;;;;;;;;25.00;23.80;;;;;;5069412;28;19925;-67
2022/03/03 14:13:21;;;;;;;;;;;25.00;23.80;;;;;;5070112;28;19925;-69
2022/03/03 14:15:49;;;;;;;;;;;25.00;23.80;;;;;;5071440;28;19977;-67
2022/03/03 14:18:17;;;;;;;;;;;25.00;23.80;;;;;;5071283;28;19925;-67
2022/03/03 14:20:44;;;;;;;;;;;25.00;23.70;;;;;;5068723;28;20398;-65
2022/03/03 14:23:11;;;;;;;;;;;25.00;23.70;;;;;;5072565;28;19928;-67
2022/03/03 14:25:38;;;;;;;;;;;25.00;23.60;;;;;;5070225;28;19974;-66
2022/03/03 14:28:05;;;;;;;;;;;25.00;23.60;;;;;;5071746;28;20293;-65
2022/03/03 14:30:32;;;;;;;;;;;25.00;23.80;;;;;;5085006;28;19947;-67
2022/03/03 14:32:59;;;;;;;;;;;25.00;23.80;;;;;;5091911;28;19924;-71
2022/03/03 14:35:27;;;;;;;;;;;25.00;23.80;;;;;;5091801;28;19924;-68
2022/03/03 14:37:54;;;;;;;;;;;25.00;23.70;;;;;;5087370;28;19924;-68
2022/03/03 14:40:21;;;;;;;;;;;25.00;23.90;;;;;;5073131;28;19959;-70
2022/03/03 14:42:48;;;;;;;;;;;25.00;23.80;;;;;;5071683;28;20297;-68